Time;durP1;ratioP1;P1;durP2;ratioP2;P2;SDS_P1;SDS_P2;PMS_P1;PMS_P2;Temp;Humidity;BMP_temperature;BMP_pressure;BME280_temperature;BME280_humidity;BME280_pressure;Samples;Min_cycle;Max_cycle;Signal;HPM_P1;HPM_P2
2020/12/08 00:00:27;;;;;;;16.58;11.50;;;;;;;2.75;75.37;97375.31;5100334;28;20044;-68
2020/12/08 00:02:54;;;;;;;16.60;12.13;;;;;;;2.78;75.23;97377.59;5099013;28;20050;-67
2020/12/08 00:05:22;;;;;;;18.98;12.35;;;;;;;2.77;75.24;97375.94;5097212;28;20109;-67
2020/12/08 00:07:49;;;;;;;17.02;11.98;;;;;;;2.76;75.18;97382.16;5099845;28;20100;-68
2020/12/08 00:10:19;;;;;;;19.77;12.90;;;;;;;2.73;75.28;97383.31;5095055;28;20075;-67
2020/12/08 00:12:47;;;;;;;18.08;12.60;;;;;;;2.72;74.94;97382.50;5095599;28;20040;-67
2020/12/08 00:15:16;;;;;;;17.70;12.05;;;;;;;2.70;75.28;97384.50;5095578;28;20040;-67
2020/12/08 00:17:46;;;;;;;19.65;13.10;;;;;;;2.74;75.37;97377.13;5094825;28;20040;-67
2020/12/08 00:20:14;;;;;;;17.80;12.05;;;;;;;2.78;75.37;97381.00;5094986;28;20075;-67
2020/12/08 00:22:41;;;;;;;20.70;13.45;;;;;;;2.78;75.03;97375.78;5094848;28;20474;-67
2020/12/08 00:25:09;;;;;;;21.05;13.23;;;;;;;2.75;75.27;97367.50;5095041;28;20058;-67
2020/12/08 00:27:36;;;;;;;14.23;10.13;;;;;;;2.70;75.01;97373.25;5094445;28;20089;-66
2020/12/08 00:30:07;;;;;;;18.00;13.40;;;;;;;2.65;75.05;97365.97;5093219;28;20048;-67
2020/12/08 00:32:33;;;;;;;17.15;11.90;;;;;;;2.63;75.06;97374.94;5094717;28;20044;-67
2020/12/08 00:35:01;;;;;;;19.45;13.02;;;;;;;2.64;75.21;97374.75;5093389;28;20044;-67
2020/12/08 00:37:28;;;;;;;17.40;12.68;;;;;;;2.62;75.03;97368.91;5094321;28;20081;-67
2020/12/08 00:39:55;;;;;;;19.90;13.60;;;;;;;2.59;75.13;97371.06;5093428;28;20117;-67
2020/12/08 00:42:21;;;;;;;19.17;12.95;;;;;;;2.59;75.09;97373.69;5093217;28;20070;-67
2020/12/08 00:44:48;;;;;;;20.00;13.73;;;;;;;2.60;75.28;97370.88;5095073;28;20071;-67
2020/12/08 00:47:15;;;;;;;21.08;13.43;;;;;;;2.60;75.01;97370.88;5094426;28;20048;-67
2020/12/08 00:49:42;;;;;;;19.73;13.82;;;;;;;2.62;75.41;97362.91;5092987;28;20051;-66
2020/12/08 00:52:10;;;;;;;19.00;13.80;;;;;;;2.60;75.02;97367.47;5093023;28;20097;-67
2020/12/08 00:54:40;;;;;;;19.30;13.25;;;;;;;2.59;75.09;97358.81;5093336;28;20044;-68
2020/12/08 00:57:10;;;;;;;20.50;14.18;;;;;;;2.60;75.12;97359.63;5092858;28;20490;-68
2020/12/08 00:59:41;;;;;;;19.35;13.38;;;;;;;2.63;75.13;97354.06;5092951;28;20044;-68
2020/12/08 01:02:08;;;;;;;19.08;13.93;;;;;;;2.65;75.04;97352.91;5093000;28;20059;-68
2020/12/08 01:04:36;;;;;;;23.30;14.23;;;;;;;2.66;75.04;97351.91;5092828;28;20060;-68
2020/12/08 01:07:04;;;;;;;18.90;13.77;;;;;;;2.70;75.08;97357.59;5092583;28;20040;-68
2020/12/08 01:09:32;;;;;;;18.27;12.32;;;;;;;2.73;75.01;97355.44;5092769;28;20105;-68
2020/12/08 01:11:59;;;;;;;17.20;13.00;;;;;;;2.78;74.93;97352.31;5092475;28;20051;-68
2020/12/08 01:14:31;;;;;;;18.05;12.38;;;;;;;2.78;74.96;97360.13;5092734;28;20046;-67
2020/12/08 01:16:59;;;;;;;18.25;13.48;;;;;;;2.83;74.77;97362.19;5092320;28;20051;-68
2020/12/08 01:19:27;;;;;;;20.42;13.98;;;;;;;2.84;74.90;97367.22;5092448;28;20040;-68
2020/12/08 01:21:58;;;;;;;17.92;12.82;;;;;;;2.89;74.38;97371.91;5092522;28;20117;-68
2020/12/08 01:24:30;;;;;;;17.70;12.95;;;;;;;2.88;74.21;97371.09;5092543;28;20052;-68
2020/12/08 01:27:04;;;;;;;16.40;12.43;;;;;;;2.86;74.03;97364.47;5092191;28;20544;-68
2020/12/08 01:29:33;;;;;;;17.58;12.50;;;;;;;2.84;74.06;97361.19;5093437;28;20044;-68
2020/12/08 01:32:06;;;;;;;17.08;12.27;;;;;;;2.80;74.07;97359.94;5092408;28;20047;-66
2020/12/08 01:34:41;;;;;;;17.90;12.88;;;;;;;2.78;73.94;97361.94;5092237;28;20048;-67
2020/12/08 01:37:11;;;;;;;18.13;11.50;;;;;;;2.82;73.89;97358.78;5091948;28;20465;-67
2020/12/08 01:39:41;;;;;;;14.95;11.25;;;;;;;2.79;73.51;97364.34;5093279;28;20414;-66
2020/12/08 01:42:18;;;;;;;15.25;11.02;;;;;;;2.80;73.55;97365.97;5093522;28;20123;-66
2020/12/08 01:44:47;;;;;;;15.88;10.95;;;;;;;2.77;73.55;97358.47;5091790;28;20048;-66
2020/12/08 01:47:17;;;;;;;15.18;11.32;;;;;;;2.68;73.24;97362.97;5091528;28;20044;-66
2020/12/08 01:49:48;;;;;;;14.75;10.85;;;;;;;2.64;73.01;97363.50;5091478;28;20514;-67
2020/12/08 01:52:17;;;;;;;13.82;10.80;;;;;;;2.63;73.13;97374.94;5091991;28;20134;-66
2020/12/08 01:54:50;;;;;;;16.48;11.30;;;;;;;2.63;73.34;97373.13;5093019;28;20126;-67
2020/12/08 01:57:23;;;;;;;15.30;11.23;;;;;;;2.69;73.52;97376.84;5092792;28;20040;-67
2020/12/08 01:59:59;;;;;;;12.43;9.15;;;;;;;2.67;73.00;97374.41;5091314;28;20052;-66
2020/12/08 02:02:33;;;;;;;15.07;10.15;;;;;;;2.57;72.66;97375.63;5092998;28;20052;-66
2020/12/08 02:05:02;;;;;;;14.43;11.07;;;;;;;2.52;73.10;97370.94;5091996;28;20048;-66
2020/12/08 02:10:41;;;;;;;17.20;12.02;;;;;;;2.40;73.27;97370.56;5091677;28;20089;-66
2020/12/08 02:13:12;;;;;;;15.75;10.93;;;;;;;2.36;73.42;97365.88;5093044;28;20445;-67
2020/12/08 02:15:44;;;;;;;15.25;11.10;;;;;;;2.36;73.64;97360.66;5091544;28;20475;-67
2020/12/08 02:18:14;;;;;;;18.00;11.77;;;;;;;2.38;73.59;97354.28;5091045;28;20036;-67
2020/12/08 02:20:44;;;;;;;15.98;11.45;;;;;;;2.40;73.55;97357.50;5091843;28;20142;-67
2020/12/08 02:23:14;;;;;;;17.70;11.50;;;;;;;2.34;73.13;97352.22;5093279;28;20055;-67
2020/12/08 02:25:53;;;;;;;17.25;12.15;;;;;;;2.31;73.68;97355.97;5092815;28;20048;-67
2020/12/08 02:28:26;;;;;;;18.42;12.38;;;;;;;2.33;73.80;97348.78;5091421;28;20068;-67
2020/12/08 02:30:55;;;;;;;17.77;12.23;;;;;;;2.41;73.92;97350.53;5091736;28;20112;-67
2020/12/08 02:33:24;;;;;;;15.57;11.27;;;;;;;2.42;73.60;97347.72;5092473;28;20040;-67
2020/12/08 02:35:56;;;;;;;16.63;10.85;;;;;;;2.40;73.37;97357.50;5091450;28;20050;-68
2020/12/08 02:38:24;;;;;;;19.23;13.18;;;;;;;2.38;73.65;97346.47;5090675;28;20452;-66
2020/12/08 02:40:51;;;;;;;16.90;12.20;;;;;;;2.42;74.02;97341.72;5091298;28;20044;-66
2020/12/08 02:43:18;;;;;;;16.00;10.20;;;;;;;2.44;73.24;97342.31;5091373;28;20048;-66
2020/12/08 02:45:45;;;;;;;16.63;12.45;;;;;;;2.39;73.60;97342.88;5092545;28;20067;-67
2020/12/08 02:48:11;;;;;;;17.70;12.50;;;;;;;2.39;73.89;97345.47;5090896;28;20533;-67
2020/12/08 02:50:57;;;;;;;18.50;12.43;;;;;;;2.41;73.44;97338.28;5091090;28;20134;-67
2020/12/08 02:53:25;;;;;;;16.15;12.30;;;;;;;2.34;73.44;97336.56;5090829;28;20067;-68
2020/12/08 02:55:52;;;;;;;17.10;13.00;;;;;;;2.34;73.81;97332.16;5092237;28;20051;-67
2020/12/08 02:58:21;;;;;;;18.13;12.95;;;;;;;2.34;73.83;97333.97;5090504;28;20463;-67
2020/12/08 03:00:49;;;;;;;18.77;12.93;;;;;;;2.32;73.93;97334.13;5090995;28;20052;-67
2020/12/08 03:03:18;;;;;;;21.20;14.00;;;;;;;2.36;74.36;97338.00;5090377;28;20047;-68
2020/12/08 03:05:45;;;;;;;17.77;13.25;;;;;;;2.41;74.12;97330.47;5090931;28;20040;-67
2020/12/08 03:08:14;;;;;;;15.77;12.20;;;;;;;2.44;74.08;97337.91;5090886;28;20512;-67
2020/12/08 03:10:41;;;;;;;18.58;13.90;;;;;;;2.50;73.97;97336.41;5091267;28;20129;-67
2020/12/08 03:13:08;;;;;;;18.75;13.13;;;;;;;2.52;74.00;97331.81;5091018;28;20044;-68
2020/12/08 03:15:39;;;;;;;18.27;13.15;;;;;;;2.54;74.00;97332.47;5091096;28;20393;-68
2020/12/08 03:18:06;;;;;;;20.20;13.95;;;;;;;2.59;73.79;97331.94;5090471;28;20066;-67
2020/12/08 03:20:33;;;;;;;19.05;13.13;;;;;;;2.61;73.94;97329.94;5091049;28;20060;-68
2020/12/08 03:23:00;;;;;;;17.92;12.43;;;;;;;2.64;73.77;97326.97;5090946;28;20498;-67
2020/12/08 03:25:28;;;;;;;17.92;13.50;;;;;;;2.69;73.84;97333.31;5090799;28;20139;-68
2020/12/08 03:27:55;;;;;;;21.23;14.07;;;;;;;2.69;73.32;97329.88;5090704;28;20055;-67
2020/12/08 03:30:25;;;;;;;19.75;13.98;;;;;;;2.66;73.40;97332.84;5092286;28;20036;-68
2020/12/08 03:32:53;;;;;;;18.90;14.38;;;;;;;2.71;73.67;97338.34;5091136;28;20048;-68
2020/12/08 03:35:23;;;;;;;19.63;13.68;;;;;;;2.69;73.50;97338.53;5090554;28;20451;-69
2020/12/08 03:37:53;;;;;;;20.95;15.02;;;;;;;2.66;73.36;97338.88;5090228;28;20525;-68
2020/12/08 03:40:22;;;;;;;19.02;13.85;;;;;;;2.63;73.56;97335.81;5090601;28;20060;-67
2020/12/08 03:42:49;;;;;;;19.02;13.18;;;;;;;2.63;73.60;97343.63;5090393;28;20079;-67
2020/12/08 03:45:19;;;;;;;17.38;12.73;;;;;;;2.67;73.86;97343.09;5090921;28;20105;-67
2020/12/08 03:47:59;;;;;;;18.00;12.30;;;;;;;2.79;74.02;97353.09;5089990;28;20078;-68
2020/12/08 03:50:33;;;;;;;20.20;14.23;;;;;;;2.84;73.43;97353.38;5090408;28;20040;-68
2020/12/08 03:53:01;;;;;;;21.58;14.60;;;;;;;2.81;73.33;97359.75;5090696;28;20040;-67
2020/12/08 03:55:35;;;;;;;19.67;13.45;;;;;;;2.85;73.41;97360.22;5091921;28;20039;-67
2020/12/08 03:58:04;;;;;;;20.13;14.02;;;;;;;2.86;73.28;97354.81;5091459;28;20071;-67
2020/12/08 04:00:31;;;;;;;19.70;13.77;;;;;;;2.84;73.16;97358.59;5091940;28;20048;-68
2020/12/08 04:02:58;;;;;;;19.95;12.98;;;;;;;2.87;73.35;97364.28;5093525;28;20040;-68
2020/12/08 04:05:30;;;;;;;17.50;12.68;;;;;;;2.90;73.34;97363.91;5092862;28;20048;-68
2020/12/08 04:07:56;;;;;;;20.48;13.48;;;;;;;2.95;73.31;97361.56;5092645;28;20482;-68
2020/12/08 04:10:29;;;;;;;19.60;14.13;;;;;;;2.94;73.09;97359.16;5091312;28;20047;-68
2020/12/08 04:12:58;;;;;;;20.83;14.30;;;;;;;2.92;73.16;97363.72;5090724;28;20051;-69
2020/12/08 04:15:25;;;;;;;20.67;15.13;;;;;;;2.90;73.10;97356.09;5093338;28;20040;-68
2020/12/08 04:17:52;;;;;;;19.35;12.80;;;;;;;2.88;73.26;97355.44;5094452;28;20146;-68
2020/12/08 04:20:19;;;;;;;19.02;13.85;;;;;;;2.88;72.88;97342.38;5095849;28;20058;-68
2020/12/08 04:22:46;;;;;;;19.98;14.63;;;;;;;2.83;73.06;97343.94;5094648;28;20485;-68
2020/12/08 04:25:16;;;;;;;19.30;14.73;;;;;;;2.81;72.97;97348.50;5094480;28;20078;-68
2020/12/08 04:27:43;;;;;;;18.92;13.43;;;;;;;2.76;73.14;97349.03;5095347;28;20036;-68
2020/12/08 04:30:11;;;;;;;20.63;15.32;;;;;;;2.74;73.17;97351.03;5093991;28;20382;-68
2020/12/08 04:32:43;;;;;;;20.27;14.35;;;;;;;2.67;73.29;97348.31;5094185;28;20055;-68
2020/12/08 04:35:09;;;;;;;20.98;14.82;;;;;;;2.63;73.44;97354.88;5093869;28;20048;-68
2020/12/08 04:37:36;;;;;;;20.95;14.30;;;;;;;2.67;73.53;97347.50;5094490;28;20040;-68
2020/12/08 04:40:03;;;;;;;20.33;14.18;;;;;;;2.61;73.43;97343.81;5094567;28;20036;-69
2020/12/08 04:42:30;;;;;;;20.77;14.88;;;;;;;2.56;73.55;97340.09;5093218;28;20052;-68
2020/12/08 04:44:58;;;;;;;21.70;14.77;;;;;;;2.55;73.75;97341.91;5094452;28;20071;-68
2020/12/08 04:47:28;;;;;;;22.48;15.23;;;;;;;2.54;73.87;97336.88;5094263;28;20533;-68
2020/12/08 04:49:58;;;;;;;24.40;16.10;;;;;;;2.53;73.86;97337.84;5094436;28;20516;-68
2020/12/08 04:52:24;;;;;;;23.50;15.82;;;;;;;2.48;73.72;97335.78;5094359;28;20044;-69
2020/12/08 04:54:51;;;;;;;23.15;16.58;;;;;;;2.48;74.05;97330.56;5094273;28;20091;-66
2020/12/08 04:57:18;;;;;;;22.42;15.48;;;;;;;2.48;74.12;97335.78;5092702;28;20051;-66
2020/12/08 04:59:44;;;;;;;24.23;16.13;;;;;;;2.54;74.28;97340.28;5093918;28;20040;-68
2020/12/08 05:02:12;;;;;;;29.02;17.38;;;;;;;2.52;73.74;97336.22;5092873;28;20048;-68
2020/12/08 05:04:39;;;;;;;22.42;16.40;;;;;;;2.47;73.96;97340.19;5094022;28;20393;-68
2020/12/08 05:07:08;;;;;;;24.23;17.10;;;;;;;2.53;74.17;97341.28;5092394;28;20122;-68
2020/12/08 05:09:46;;;;;;;24.65;16.52;;;;;;;2.58;74.21;97345.97;5094206;28;20101;-69
2020/12/08 05:12:19;;;;;;;25.48;17.73;;;;;;;2.62;74.09;97350.66;5092734;28;20150;-68
2020/12/08 05:14:46;;;;;;;25.98;18.02;;;;;;;2.62;74.05;97360.28;5093072;28;20051;-68
2020/12/08 05:17:12;;;;;;;26.40;17.95;;;;;;;2.64;74.45;97368.72;5093951;28;20508;-67
2020/12/08 05:19:39;;;;;;;24.30;16.58;;;;;;;2.73;74.50;97365.88;5092499;28;20497;-67
2020/12/08 05:22:10;;;;;;;24.92;17.70;;;;;;;2.80;73.98;97362.56;5093930;28;20040;-67
2020/12/08 05:24:37;;;;;;;26.00;17.33;;;;;;;2.81;74.12;97356.34;5093683;28;20055;-68
2020/12/08 05:27:06;;;;;;;24.73;17.25;;;;;;;2.80;74.03;97355.53;5092179;28;20055;-68
2020/12/08 05:29:35;;;;;;;24.92;17.85;;;;;;;2.75;73.61;97362.28;5093703;28;20039;-68
2020/12/08 05:32:24;;;;;;;25.00;17.95;;;;;;;2.68;73.81;97368.19;5095774;28;20159;-68
2020/12/08 05:34:55;;;;;;;27.13;18.77;;;;;;;2.64;73.64;97363.50;5092532;28;20047;-68
2020/12/08 05:37:23;;;;;;;27.23;18.05;;;;;;;2.59;74.09;97358.81;5093401;28;20091;-68
2020/12/08 05:39:50;;;;;;;25.33;17.15;;;;;;;2.57;74.40;97357.38;5093255;28;20036;-68
2020/12/08 05:42:19;;;;;;;26.17;17.58;;;;;;;2.54;74.47;97355.94;5092118;28;20379;-67
2020/12/08 05:44:47;;;;;;;26.80;17.60;;;;;;;2.53;74.51;97356.94;5093433;28;20082;-68
2020/12/08 05:47:18;;;;;;;25.25;17.80;;;;;;;2.54;74.63;97363.78;5093180;28;20405;-68
2020/12/08 05:49:45;;;;;;;27.05;18.92;;;;;;;2.59;74.69;97365.84;5093228;28;20044;-68
2020/12/08 05:52:18;;;;;;;28.73;18.63;;;;;;;2.61;74.47;97369.06;5092207;28;20504;-68
2020/12/08 05:54:46;;;;;;;28.98;19.75;;;;;;;2.55;74.54;97369.81;5093755;28;20040;-68
2020/12/08 05:57:15;;;;;;;30.50;19.67;;;;;;;2.57;74.82;97367.81;5091784;28;20134;-68
2020/12/08 05:59:42;;;;;;;28.23;19.27;;;;;;;2.59;74.83;97371.06;5093501;28;20498;-68
2020/12/08 06:02:09;;;;;;;28.85;18.95;;;;;;;2.57;74.72;97363.44;5093620;28;20046;-68
2020/12/08 06:04:40;;;;;;;29.10;18.98;;;;;;;2.52;74.76;97363.13;5093083;28;20051;-68
2020/12/08 06:07:06;;;;;;;32.22;20.65;;;;;;;2.47;74.88;97368.88;5093086;28;20040;-68
2020/12/08 06:09:34;;;;;;;33.22;20.63;;;;;;;2.47;74.93;97366.25;5093564;28;20040;-68
2020/12/08 06:12:02;;;;;;;26.27;17.80;;;;;;;2.46;74.85;97367.25;5092298;28;20466;-68
2020/12/08 06:14:31;;;;;;;29.45;20.17;;;;;;;2.45;75.01;97368.25;5091748;28;20094;-68
2020/12/08 06:17:00;;;;;;;30.90;20.08;;;;;;;2.45;75.01;97365.66;5092452;28;20126;-68
2020/12/08 06:19:27;;;;;;;39.08;24.40;;;;;;;2.46;75.19;97364.66;5092731;28;20040;-68
2020/12/08 06:21:54;;;;;;;30.70;19.90;;;;;;;2.48;75.08;97357.44;5092892;28;20626;-67
2020/12/08 06:24:21;;;;;;;32.17;19.95;;;;;;;2.45;75.09;97363.03;5091721;28;20078;-68
2020/12/08 06:26:48;;;;;;;31.88;20.00;;;;;;;2.43;75.25;97369.41;5091651;28;20571;-68
2020/12/08 06:29:15;;;;;;;32.63;20.45;;;;;;;2.42;75.17;97357.38;5092709;28;20127;-68
2020/12/08 06:31:43;;;;;;;35.83;20.83;;;;;;;2.37;75.14;97357.88;5093142;28;20048;-68
2020/12/08 06:34:19;;;;;;;32.42;20.75;;;;;;;2.29;75.38;97362.38;5092289;28;20048;-68
2020/12/08 06:36:46;;;;;;;34.97;21.38;;;;;;;2.29;75.40;97357.97;5090244;28;20399;-68
2020/12/08 06:39:14;;;;;;;33.42;20.73;;;;;;;2.30;75.40;97362.19;5092472;28;20044;-68
2020/12/08 06:41:42;;;;;;;35.05;20.77;;;;;;;2.31;75.40;97368.19;5091077;28;20048;-67
2020/12/08 06:44:14;;;;;;;34.13;21.15;;;;;;;2.27;75.19;97361.72;5092257;28;20048;-67
2020/12/08 06:46:52;;;;;;;32.88;20.05;;;;;;;2.31;75.76;97371.63;5092458;28;20052;-68
2020/12/08 06:49:23;;;;;;;36.85;22.77;;;;;;;2.38;75.56;97376.97;5092158;28;20041;-68
2020/12/08 06:51:55;;;;;;;35.25;22.33;;;;;;;2.39;75.40;97378.56;5090767;28;20055;-67
2020/12/08 06:54:22;;;;;;;34.78;22.70;;;;;;;2.38;75.35;97382.97;5092157;28;20050;-68
2020/12/08 06:56:49;;;;;;;34.17;21.63;;;;;;;2.42;75.22;97386.06;5091941;28;20040;-69
2020/12/08 06:59:22;;;;;;;33.40;20.50;;;;;;;2.35;75.18;97385.13;5092102;28;20051;-67
2020/12/08 07:01:51;;;;;;;38.78;24.20;;;;;;;2.37;75.72;97396.22;5091798;28;20040;-69
2020/12/08 07:04:18;;;;;;;40.53;23.48;;;;;;;2.47;75.65;97392.34;5090933;28;20048;-68
2020/12/08 07:06:45;;;;;;;33.28;21.73;;;;;;;2.53;75.37;97396.06;5090824;28;20051;-68
2020/12/08 07:09:13;;;;;;;39.38;22.90;;;;;;;2.49;75.18;97402.63;5091866;28;20493;-68
2020/12/08 07:11:40;;;;;;;36.38;21.95;;;;;;;2.41;74.83;97397.47;5091069;28;20039;-68
2020/12/08 07:14:07;;;;;;;34.20;21.23;;;;;;;2.32;74.89;97401.91;5090806;28;20044;-68
2020/12/08 07:16:38;;;;;;;33.50;21.67;;;;;;;2.33;75.30;97406.16;5092080;28;20189;-70
2020/12/08 07:19:07;;;;;;;33.25;20.33;;;;;;;2.31;75.32;97410.72;5091831;28;20078;-68
2020/12/08 07:21:35;;;;;;;32.10;20.73;;;;;;;2.28;75.50;97407.66;5092006;28;20052;-67
2020/12/08 07:24:10;;;;;;;32.60;20.80;;;;;;;2.27;75.32;97406.84;5092029;28;20036;-67
2020/12/08 07:26:38;;;;;;;37.08;23.00;;;;;;;2.20;75.33;97405.91;5091872;28;20577;-67
2020/12/08 07:29:06;;;;;;;35.55;23.27;;;;;;;2.26;75.70;97401.81;5091506;28;20067;-68
2020/12/08 07:31:33;;;;;;;37.25;23.10;;;;;;;2.27;75.65;97399.03;5090530;28;20044;-67
2020/12/08 07:34:00;;;;;;;34.75;22.80;;;;;;;2.31;75.63;97399.50;5092237;28;20040;-68
2020/12/08 07:36:29;;;;;;;40.72;25.00;;;;;;;2.29;75.40;97404.91;5091928;28;20095;-67
2020/12/08 07:38:58;;;;;;;35.50;22.13;;;;;;;2.22;75.53;97403.97;5091729;28;20055;-68
2020/12/08 07:41:26;;;;;;;34.17;21.55;;;;;;;2.23;75.67;97410.78;5091788;28;20047;-68
2020/12/08 07:43:55;;;;;;;35.30;21.90;;;;;;;2.29;75.93;97414.53;5091669;28;20033;-68
2020/12/08 07:46:23;;;;;;;39.97;25.95;;;;;;;2.38;75.65;97408.25;5091469;28;20391;-68
2020/12/08 07:49:01;;;;;;;37.95;23.50;;;;;;;2.45;75.87;97414.41;5092081;28;20063;-68
2020/12/08 07:51:29;;;;;;;35.00;23.10;;;;;;;2.43;75.47;97414.56;5095602;28;20110;-68
2020/12/08 07:53:57;;;;;;;35.10;20.92;;;;;;;2.52;75.77;97411.88;5095491;28;20047;-68
2020/12/08 07:56:25;;;;;;;36.67;22.77;;;;;;;2.52;75.00;97414.50;5095623;28;20036;-69
2020/12/08 07:58:52;;;;;;;36.45;20.98;;;;;;;2.48;75.18;97414.84;5095188;28;20044;-67
2020/12/08 08:01:19;;;;;;;33.72;21.27;;;;;;;2.53;75.10;97409.13;5094765;28;20048;-67
2020/12/08 08:03:47;;;;;;;36.75;23.30;;;;;;;2.53;75.05;97406.50;5095740;28;20043;-68
2020/12/08 08:06:14;;;;;;;36.72;22.00;;;;;;;2.50;75.02;97411.25;5095797;28;20050;-67
2020/12/08 08:08:44;;;;;;;35.67;22.85;;;;;;;2.41;75.17;97419.16;5095165;28;20084;-67
2020/12/08 08:11:11;;;;;;;37.33;22.27;;;;;;;2.40;75.25;97420.13;5095376;28;20126;-68
2020/12/08 08:13:38;;;;;;;35.60;22.73;;;;;;;2.45;75.25;97424.84;5094262;28;20130;-68
2020/12/08 08:16:09;;;;;;;35.90;22.92;;;;;;;2.48;75.14;97430.47;5098133;28;20044;-68
2020/12/08 08:18:36;;;;;;;37.20;23.30;;;;;;;2.49;74.92;97428.72;5099041;28;20040;-67
2020/12/08 08:21:02;;;;;;;39.50;23.63;;;;;;;2.51;75.11;97431.94;5096645;28;20040;-67
2020/12/08 08:23:30;;;;;;;36.60;22.48;;;;;;;2.45;75.01;97428.25;5095359;28;20047;-68
2020/12/08 08:25:58;;;;;;;36.95;23.88;;;;;;;2.51;74.89;97433.75;5095432;28;20059;-68
2020/12/08 08:28:25;;;;;;;39.47;23.95;;;;;;;2.60;75.12;97446.53;5093676;28;20050;-68
2020/12/08 08:30:53;;;;;;;38.28;23.60;;;;;;;2.62;74.66;97454.22;5095504;28;20051;-68
2020/12/08 08:33:19;;;;;;;36.53;23.83;;;;;;;2.63;74.61;97453.22;5095454;28;20312;-68
2020/12/08 08:35:46;;;;;;;37.25;22.77;;;;;;;2.65;74.57;97443.41;5095329;28;20498;-67
2020/12/08 08:38:14;;;;;;;34.55;21.85;;;;;;;2.68;74.36;97450.88;5094566;28;20050;-68
2020/12/08 08:40:40;;;;;;;37.42;22.63;;;;;;;2.65;74.33;97446.00;5095148;28;20478;-68
2020/12/08 08:43:08;;;;;;;37.63;22.67;;;;;;;2.62;74.34;97438.56;5095171;28;20058;-70
2020/12/08 08:45:35;;;;;;;33.53;21.25;;;;;;;2.60;74.38;97441.31;5095042;28;20062;-68
2020/12/08 08:48:02;;;;;;;34.05;21.67;;;;;;;2.63;74.49;97446.19;5094361;28;20051;-69
2020/12/08 08:50:28;;;;;;;35.05;22.02;;;;;;;2.68;74.44;97435.22;5094770;28;20070;-68
2020/12/08 08:52:55;;;;;;;35.85;22.23;;;;;;;2.72;74.46;97441.72;5094911;28;20048;-67
2020/12/08 08:55:22;;;;;;;33.65;22.45;;;;;;;2.73;74.25;97448.56;5094263;28;20143;-68
2020/12/08 08:57:49;;;;;;;35.53;23.02;;;;;;;2.76;74.07;97450.00;5094333;28;20040;-67
2020/12/08 09:00:16;;;;;;;35.58;22.55;;;;;;;2.79;73.86;97457.50;5093473;28;20044;-68
2020/12/08 09:02:43;;;;;;;35.40;21.73;;;;;;;2.78;73.68;97448.06;5094093;28;20048;-68
2020/12/08 09:05:10;;;;;;;35.10;22.08;;;;;;;2.75;73.90;97446.59;5094033;28;20048;-68
2020/12/08 09:07:37;;;;;;;38.10;23.73;;;;;;;2.78;73.77;97448.84;5093763;28;20036;-67
2020/12/08 09:10:04;;;;;;;36.53;22.20;;;;;;;2.84;73.66;97444.72;5093889;28;20048;-68
2020/12/08 09:12:30;;;;;;;32.78;21.85;;;;;;;2.92;73.54;97452.47;5093972;28;20050;-68
2020/12/08 09:15:00;;;;;;;29.67;20.40;;;;;;;2.96;73.46;97449.34;5093891;28;20043;-68
2020/12/08 09:17:28;;;;;;;31.70;21.55;;;;;;;3.07;73.38;97455.13;5093618;28;20040;-68
2020/12/08 09:19:55;;;;;;;32.58;21.00;;;;;;;3.19;72.75;97454.50;5093848;28;20036;-68
2020/12/08 09:22:23;;;;;;;32.05;21.75;;;;;;;3.29;72.58;97451.63;5093086;28;20046;-69
2020/12/08 09:24:50;;;;;;;31.58;20.25;;;;;;;3.36;72.12;97455.16;5094214;28;20036;-68
2020/12/08 09:27:17;;;;;;;34.35;21.73;;;;;;;3.47;72.39;97457.31;5093829;28;20379;-69
2020/12/08 09:29:44;;;;;;;54.75;34.30;;;;;;;3.59;71.90;97464.69;5093588;28;20051;-68
2020/12/08 09:32:11;;;;;;;34.65;22.75;;;;;;;3.67;72.06;97470.66;5093721;28;20053;-68
2020/12/08 09:34:38;;;;;;;35.78;21.52;;;;;;;3.84;72.20;97470.47;5093739;28;20130;-68
2020/12/08 09:37:05;;;;;;;31.35;21.38;;;;;;;3.84;71.15;97460.81;5093237;28;20039;-68
2020/12/08 09:39:32;;;;;;;34.50;21.00;;;;;;;3.89;71.04;97448.00;5093594;28;20043;-68
2020/12/08 09:41:59;;;;;;;33.08;21.50;;;;;;;3.90;70.87;97448.81;5093623;28;20525;-67
2020/12/08 09:44:26;;;;;;;31.52;21.90;;;;;;;3.95;70.53;97449.88;5092085;28;20060;-68
2020/12/08 09:46:53;;;;;;;32.88;21.70;;;;;;;3.97;70.25;97440.03;5093273;28;20518;-68
2020/12/08 09:49:19;;;;;;;34.47;22.30;;;;;;;3.95;70.39;97441.22;5093209;28;20044;-68
2020/12/08 09:51:47;;;;;;;29.20;19.88;;;;;;;3.97;70.32;97437.44;5093556;28;20040;-69
2020/12/08 09:54:14;;;;;;;31.88;21.85;;;;;;;4.01;70.10;97444.91;5093770;28;20044;-69
2020/12/08 09:56:46;;;;;;;31.90;22.00;;;;;;;3.90;70.06;97447.00;5091754;28;20519;-69
2020/12/08 09:59:12;;;;;;;29.90;19.98;;;;;;;3.91;69.57;97445.19;5091458;28;20151;-68
2020/12/08 10:01:39;;;;;;;31.20;22.05;;;;;;;3.84;70.01;97444.31;5093286;28;20051;-69
2020/12/08 10:04:06;;;;;;;30.77;21.65;;;;;;;3.87;70.33;97441.31;5093163;28;20047;-69
2020/12/08 10:06:34;;;;;;;29.83;20.10;;;;;;;3.88;70.04;97451.63;5093185;28;20072;-69
2020/12/08 10:09:02;;;;;;;33.08;21.30;;;;;;;3.81;69.88;97453.31;5092822;28;20401;-69
2020/12/08 10:11:29;;;;;;;31.75;21.55;;;;;;;3.77;70.36;97452.06;5091581;28;20501;-68
2020/12/08 10:13:55;;;;;;;31.77;21.38;;;;;;;3.82;70.39;97459.38;5093035;28;20032;-69
2020/12/08 10:16:24;;;;;;;29.13;19.55;;;;;;;3.82;69.54;97451.53;5093035;28;20050;-68
2020/12/08 10:18:51;;;;;;;30.77;20.67;;;;;;;3.76;69.58;97457.50;5093312;28;20047;-69
2020/12/08 10:21:19;;;;;;;27.98;19.63;;;;;;;3.84;70.00;97446.94;5091990;28;20424;-68
2020/12/08 10:23:47;;;;;;;34.08;21.63;;;;;;;3.99;69.77;97455.53;5093336;28;20072;-68
2020/12/08 10:26:14;;;;;;;33.35;21.30;;;;;;;4.13;69.65;97459.13;5094304;28;20167;-69
2020/12/08 10:28:41;;;;;;;28.65;21.25;;;;;;;4.20;69.29;97457.38;5092726;28;20078;-67
2020/12/08 10:31:08;;;;;;;30.98;20.55;;;;;;;4.35;68.90;97458.16;5093458;28;20719;-68
2020/12/08 10:33:35;;;;;;;31.20;22.08;;;;;;;4.38;68.22;97446.50;5091643;28;20052;-67
2020/12/08 10:36:01;;;;;;;28.63;20.52;;;;;;;4.36;68.10;97451.91;5093004;28;20039;-67
2020/12/08 10:38:28;;;;;;;28.58;19.35;;;;;;;4.32;67.49;97445.44;5092549;28;20036;-69
2020/12/08 10:40:55;;;;;;;30.80;21.58;;;;;;;4.26;67.88;97458.47;5091562;28;20048;-68
2020/12/08 10:43:23;;;;;;;28.08;18.95;;;;;;;4.27;67.34;97452.22;5092877;28;20043;-68
2020/12/08 10:46:02;;;;;;;26.60;18.92;;;;;;;4.36;67.82;97449.31;5092682;28;20137;-67
2020/12/08 10:48:29;;;;;;;26.15;19.80;;;;;;;4.51;67.17;97454.50;5091489;28;20071;-67
2020/12/08 10:50:56;;;;;;;29.15;20.30;;;;;;;4.52;66.95;97455.28;5091349;28;20036;-68
2020/12/08 10:53:22;;;;;;;28.73;20.08;;;;;;;4.52;66.99;97458.72;5092626;28;20044;-68
2020/12/08 10:55:49;;;;;;;27.48;19.40;;;;;;;4.60;66.80;97460.41;5092475;28;20058;-68
2020/12/08 10:58:17;;;;;;;27.48;20.27;;;;;;;4.61;66.26;97462.00;5092168;28;20040;-68
2020/12/08 11:00:45;;;;;;;27.73;20.25;;;;;;;4.65;66.84;97465.88;5092027;28;20143;-68
2020/12/08 11:03:13;;;;;;;27.20;19.70;;;;;;;4.74;66.41;97451.69;5092246;28;20047;-67
2020/12/08 11:05:40;;;;;;;29.88;21.30;;;;;;;4.76;66.43;97460.16;5091296;28;20502;-68
2020/12/08 11:08:07;;;;;;;31.30;22.50;;;;;;;4.75;66.82;97453.28;5092770;28;20069;-68
2020/12/08 11:10:34;;;;;;;27.77;19.42;;;;;;;4.83;66.67;97449.75;5092301;28;20611;-69
2020/12/08 11:13:00;;;;;;;30.90;22.00;;;;;;;4.76;65.97;97449.69;5092521;28;20409;-68
2020/12/08 11:15:28;;;;;;;29.70;21.05;;;;;;;4.72;66.36;97446.63;5092372;28;20078;-68
2020/12/08 11:17:56;;;;;;;31.70;22.23;;;;;;;4.76;66.70;97454.91;5091763;28;20059;-67
2020/12/08 11:20:23;;;;;;;29.50;21.27;;;;;;;4.76;66.48;97447.06;5092028;28;20401;-68
2020/12/08 11:22:50;;;;;;;27.80;20.48;;;;;;;4.68;66.38;97448.00;5092700;28;20036;-68
2020/12/08 11:25:16;;;;;;;29.40;20.95;;;;;;;4.64;66.38;97451.19;5096432;28;20040;-68
2020/12/08 11:27:43;;;;;;;26.92;18.55;;;;;;;4.59;66.81;97453.56;5096316;28;20484;-68
2020/12/08 11:30:10;;;;;;;31.80;21.45;;;;;;;4.68;67.22;97463.69;5096324;28;20036;-67
2020/12/08 11:32:36;;;;;;;30.38;21.73;;;;;;;4.87;67.01;97458.84;5096501;28;20040;-68